Castle Airport
KMER : now visible

Airfield :











YOU CAN JOIN US ON...

 
LOGIN :

Register | Disclaimer

   EN    FR    IT 

 









Legend :    VFR   Marginal VFR   IFR   Intensive IFR   Very Intensive IFR
Visi :
Ceiling :
>= 8 km
>= 3000ft
5 to 8 km
1000 to 3000 ft
1500m to 5 km
500 to 1000 ft
800 to 1500m
200 to 500 ft
< 800m
< 200 ft
Symbols :   Thunderstorms  Fog  Heavy snow  Heavy precipitations  Wind > 20 kt







- Airport Elevation : 191 ft


KMER - Castle

CURRENT METAR :
  • 211115Z AUTO 00000KT 10SM SCT070 BKN090 12/12 A2993 RMK AO1

EXPIRED METARs :
  • 211055Z AUTO 18003KT 10SM SCT060 BKN065 13/12 A2993 RMK AO1
  • 211035Z AUTO 00000KT 10SM BKN060 BKN070 13/12 A2993 RMK AO1
  • 211015Z AUTO 00000KT 10SM FEW050 BKN070 OVC085 12/12 A2993 RMK AO1
  • 210955Z AUTO 25004KT 10SM BKN048 OVC060 13/12 A2994 RMK AO1
  • 210935Z AUTO 00000KT 10SM BKN044 BKN060 12/12 A2995 RMK AO1
  • 210915Z AUTO 00000KT 10SM FEW043 FEW049 SCT060 12/12 A2995 RMK AO1
  • 210855Z AUTO 00000KT 10SM BKN043 12/12 A2994 RMK AO1
  • 210835Z AUTO 27003KT 10SM OVC043 13/12 A2995 RMK AO1

TAF KMER
Valid from the 21 at 12:00 until the 22 at 12:00 UTC


211120Z 2112/2212 33004KT P6SM SCT030 BKN050 OVC070
FM211800 32011G20KT P6SM VCSH SCT030 BKN050 OVC070
FM220300 31009KT P6SM SCT030 BKN050 OVC070
KZOA FIR / North America



MET'MAP, your aeronautical weather chart ! - Copyright ORBIFLY December 2007 - Disclaimer

ORBIFLY MET'MAP TEAM :

Programming & Development : Alexandra Zaïnal
Concept & Development : Baudouin d'Aumeries
Co-Development & Prog : Marc-Olivier Méhu
Technical & hardware support : Manuel Goepfert

Contact : metmap@orbifly.com




SOURCES & CREDITS :

   NOAA       Earth
Advisory